sensor_id;sensor_type;location;lat;lon;timestamp;P1;durP1;ratioP1;P2;durP2;ratioP2
5650;SDS011;40241;52.684;9.758;2023-10-13T00:01:59;13.00;;;7.97;;
5650;SDS011;40241;52.684;9.758;2023-10-13T00:04:26;8.80;;;7.20;;
5650;SDS011;40241;52.684;9.758;2023-10-13T00:06:52;11.07;;;7.47;;
5650;SDS011;40241;52.684;9.758;2023-10-13T00:09:24;11.50;;;7.83;;
5650;SDS011;40241;52.684;9.758;2023-10-13T00:11:54;10.60;;;7.57;;
5650;SDS011;40241;52.684;9.758;2023-10-13T00:14:21;11.27;;;7.80;;
5650;SDS011;40241;52.684;9.758;2023-10-13T00:16:47;12.90;;;8.60;;
5650;SDS011;40241;52.684;9.758;2023-10-13T00:19:32;11.17;;;8.37;;
5650;SDS011;40241;52.684;9.758;2023-10-13T00:22:17;18.17;;;8.17;;
5650;SDS011;40241;52.684;9.758;2023-10-13T00:24:44;12.07;;;8.27;;
5650;SDS011;40241;52.684;9.758;2023-10-13T00:29:56;9.50;;;7.23;;
5650;SDS011;40241;52.684;9.758;2023-10-13T00:32:41;10.07;;;7.50;;
5650;SDS011;40241;52.684;9.758;2023-10-13T00:35:09;9.50;;;7.50;;
5650;SDS011;40241;52.684;9.758;2023-10-13T00:37:36;9.90;;;7.30;;
5650;SDS011;40241;52.684;9.758;2023-10-13T00:40:10;11.00;;;8.30;;
5650;SDS011;40241;52.684;9.758;2023-10-13T00:42:54;11.43;;;7.17;;
5650;SDS011;40241;52.684;9.758;2023-10-13T00:45:24;8.77;;;6.63;;
5650;SDS011;40241;52.684;9.758;2023-10-13T00:47:53;10.20;;;7.70;;
5650;SDS011;40241;52.684;9.758;2023-10-13T00:50:22;13.00;;;8.73;;
5650;SDS011;40241;52.684;9.758;2023-10-13T00:52:50;9.93;;;7.50;;
5650;SDS011;40241;52.684;9.758;2023-10-13T00:55:16;11.93;;;8.50;;
5650;SDS011;40241;52.684;9.758;2023-10-13T00:57:43;11.63;;;7.30;;
5650;SDS011;40241;52.684;9.758;2023-10-13T01:00:11;9.93;;;7.00;;
5650;SDS011;40241;52.684;9.758;2023-10-13T01:02:44;10.70;;;7.27;;
5650;SDS011;40241;52.684;9.758;2023-10-13T01:05:21;15.47;;;7.20;;
5650;SDS011;40241;52.684;9.758;2023-10-13T01:07:48;12.97;;;7.13;;
5650;SDS011;40241;52.684;9.758;2023-10-13T01:10:17;12.80;;;7.37;;
5650;SDS011;40241;52.684;9.758;2023-10-13T01:12:44;9.97;;;6.77;;
5650;SDS011;40241;52.684;9.758;2023-10-13T01:15:10;13.50;;;7.83;;
5650;SDS011;40241;52.684;9.758;2023-10-13T01:17:38;12.00;;;7.70;;
5650;SDS011;40241;52.684;9.758;2023-10-13T01:20:04;15.23;;;7.60;;
5650;SDS011;40241;52.684;9.758;2023-10-13T01:22:30;9.90;;;6.43;;
5650;SDS011;40241;52.684;9.758;2023-10-13T01:24:57;9.40;;;6.47;;
5650;SDS011;40241;52.684;9.758;2023-10-13T01:27:30;12.23;;;7.87;;
5650;SDS011;40241;52.684;9.758;2023-10-13T01:29:55;11.27;;;7.90;;
5650;SDS011;40241;52.684;9.758;2023-10-13T01:32:30;11.33;;;6.80;;
5650;SDS011;40241;52.684;9.758;2023-10-13T01:34:56;11.00;;;7.53;;
5650;SDS011;40241;52.684;9.758;2023-10-13T01:37:22;13.23;;;7.70;;
5650;SDS011;40241;52.684;9.758;2023-10-13T01:39:48;12.97;;;8.00;;
5650;SDS011;40241;52.684;9.758;2023-10-13T01:42:14;10.83;;;8.40;;
5650;SDS011;40241;52.684;9.758;2023-10-13T01:44:44;13.73;;;8.33;;
5650;SDS011;40241;52.684;9.758;2023-10-13T01:47:10;15.37;;;7.27;;
5650;SDS011;40241;52.684;9.758;2023-10-13T01:49:35;10.07;;;7.53;;
5650;SDS011;40241;52.684;9.758;2023-10-13T01:52:10;10.47;;;7.40;;
5650;SDS011;40241;52.684;9.758;2023-10-13T01:54:37;14.90;;;7.80;;
5650;SDS011;40241;52.684;9.758;2023-10-13T01:57:06;17.20;;;8.33;;
5650;SDS011;40241;52.684;9.758;2023-10-13T01:59:32;9.27;;;7.40;;
5650;SDS011;40241;52.684;9.758;2023-10-13T02:01:57;11.17;;;8.67;;
5650;SDS011;40241;52.684;9.758;2023-10-13T02:04:25;12.13;;;7.80;;
5650;SDS011;40241;52.684;9.758;2023-10-13T02:06:52;9.57;;;7.90;;
5650;SDS011;40241;52.684;9.758;2023-10-13T02:09:18;12.23;;;8.87;;
5650;SDS011;40241;52.684;9.758;2023-10-13T02:11:52;14.43;;;8.27;;
5650;SDS011;40241;52.684;9.758;2023-10-13T02:14:22;11.10;;;8.63;;
5650;SDS011;40241;52.684;9.758;2023-10-13T02:16:48;10.70;;;8.00;;
5650;SDS011;40241;52.684;9.758;2023-10-13T02:19:15;13.50;;;7.90;;
5650;SDS011;40241;52.684;9.758;2023-10-13T02:21:44;12.37;;;8.30;;
5650;SDS011;40241;52.684;9.758;2023-10-13T02:24:10;12.90;;;9.77;;
5650;SDS011;40241;52.684;9.758;2023-10-13T02:26:43;13.87;;;9.63;;
5650;SDS011;40241;52.684;9.758;2023-10-13T02:29:09;14.97;;;10.57;;
5650;SDS011;40241;52.684;9.758;2023-10-13T02:31:39;14.43;;;10.00;;
5650;SDS011;40241;52.684;9.758;2023-10-13T02:34:06;12.10;;;10.37;;
5650;SDS011;40241;52.684;9.758;2023-10-13T02:36:33;15.60;;;10.93;;
5650;SDS011;40241;52.684;9.758;2023-10-13T02:39:02;15.70;;;11.30;;
5650;SDS011;40241;52.684;9.758;2023-10-13T02:41:32;17.60;;;10.70;;
5650;SDS011;40241;52.684;9.758;2023-10-13T02:44:02;13.60;;;10.80;;
5650;SDS011;40241;52.684;9.758;2023-10-13T02:46:34;14.87;;;11.10;;
5650;SDS011;40241;52.684;9.758;2023-10-13T02:49:02;14.13;;;11.10;;
5650;SDS011;40241;52.684;9.758;2023-10-13T02:51:35;13.87;;;10.53;;
5650;SDS011;40241;52.684;9.758;2023-10-13T02:54:06;17.90;;;10.67;;
5650;SDS011;40241;52.684;9.758;2023-10-13T02:56:43;18.80;;;12.70;;
5650;SDS011;40241;52.684;9.758;2023-10-13T02:59:22;16.17;;;12.00;;
5650;SDS011;40241;52.684;9.758;2023-10-13T03:02:03;19.13;;;12.00;;
5650;SDS011;40241;52.684;9.758;2023-10-13T03:04:52;19.77;;;13.70;;
5650;SDS011;40241;52.684;9.758;2023-10-13T03:07:38;15.07;;;11.07;;
5650;SDS011;40241;52.684;9.758;2023-10-13T03:10:07;16.53;;;12.63;;
5650;SDS011;40241;52.684;9.758;2023-10-13T03:12:37;19.83;;;12.60;;
5650;SDS011;40241;52.684;9.758;2023-10-13T03:15:07;20.37;;;13.40;;
5650;SDS011;40241;52.684;9.758;2023-10-13T03:17:41;16.40;;;13.20;;
5650;SDS011;40241;52.684;9.758;2023-10-13T03:20:13;18.80;;;14.17;;
5650;SDS011;40241;52.684;9.758;2023-10-13T03:22:44;18.73;;;13.97;;
5650;SDS011;40241;52.684;9.758;2023-10-13T03:25:10;16.20;;;12.63;;
5650;SDS011;40241;52.684;9.758;2023-10-13T03:27:42;18.00;;;14.67;;
5650;SDS011;40241;52.684;9.758;2023-10-13T03:30:17;19.20;;;14.50;;
5650;SDS011;40241;52.684;9.758;2023-10-13T03:32:43;20.03;;;14.57;;
5650;SDS011;40241;52.684;9.758;2023-10-13T03:35:11;30.33;;;14.67;;
5650;SDS011;40241;52.684;9.758;2023-10-13T03:37:38;18.83;;;14.70;;
5650;SDS011;40241;52.684;9.758;2023-10-13T03:40:05;19.20;;;14.60;;
5650;SDS011;40241;52.684;9.758;2023-10-13T03:42:46;19.67;;;14.20;;
5650;SDS011;40241;52.684;9.758;2023-10-13T03:45:35;19.83;;;15.83;;
5650;SDS011;40241;52.684;9.758;2023-10-13T03:48:04;16.27;;;14.20;;
5650;SDS011;40241;52.684;9.758;2023-10-13T03:51:06;17.87;;;15.10;;
5650;SDS011;40241;52.684;9.758;2023-10-13T03:53:40;20.47;;;14.63;;
5650;SDS011;40241;52.684;9.758;2023-10-13T03:56:19;25.30;;;16.47;;
5650;SDS011;40241;52.684;9.758;2023-10-13T03:58:51;19.03;;;15.50;;
5650;SDS011;40241;52.684;9.758;2023-10-13T04:01:25;19.80;;;14.20;;
5650;SDS011;40241;52.684;9.758;2023-10-13T04:04:10;17.53;;;14.07;;
5650;SDS011;40241;52.684;9.758;2023-10-13T04:06:39;20.67;;;16.57;;
5650;SDS011;40241;52.684;9.758;2023-10-13T04:11:58;17.70;;;15.37;;
5650;SDS011;40241;52.684;9.758;2023-10-13T04:14:24;19.97;;;15.47;;
5650;SDS011;40241;52.684;9.758;2023-10-13T04:17:10;21.50;;;14.27;;
5650;SDS011;40241;52.684;9.758;2023-10-13T04:19:47;19.20;;;16.00;;
5650;SDS011;40241;52.684;9.758;2023-10-13T04:22:32;19.57;;;16.30;;
5650;SDS011;40241;52.684;9.758;2023-10-13T04:25:27;22.20;;;15.50;;
5650;SDS011;40241;52.684;9.758;2023-10-13T04:30:44;18.13;;;15.80;;
5650;SDS011;40241;52.684;9.758;2023-10-13T04:33:37;17.10;;;14.47;;
5650;SDS011;40241;52.684;9.758;2023-10-13T04:36:16;26.00;;;14.57;;
5650;SDS011;40241;52.684;9.758;2023-10-13T04:39:01;15.40;;;13.70;;
5650;SDS011;40241;52.684;9.758;2023-10-13T04:41:36;20.87;;;16.60;;
5650;SDS011;40241;52.684;9.758;2023-10-13T04:44:12;15.13;;;13.53;;
5650;SDS011;40241;52.684;9.758;2023-10-13T04:46:57;15.17;;;13.53;;
5650;SDS011;40241;52.684;9.758;2023-10-13T04:49:24;16.77;;;13.87;;
5650;SDS011;40241;52.684;9.758;2023-10-13T04:52:08;13.17;;;11.87;;
5650;SDS011;40241;52.684;9.758;2023-10-13T04:54:35;14.50;;;12.73;;
5650;SDS011;40241;52.684;9.758;2023-10-13T04:57:21;15.67;;;12.90;;
5650;SDS011;40241;52.684;9.758;2023-10-13T04:59:50;15.03;;;13.10;;
5650;SDS011;40241;52.684;9.758;2023-10-13T05:02:29;14.83;;;12.87;;
5650;SDS011;40241;52.684;9.758;2023-10-13T05:05:03;21.30;;;12.67;;
5650;SDS011;40241;52.684;9.758;2023-10-13T05:07:39;15.33;;;11.97;;
5650;SDS011;40241;52.684;9.758;2023-10-13T05:10:26;13.10;;;11.80;;
5650;SDS011;40241;52.684;9.758;2023-10-13T05:13:10;13.60;;;11.73;;
5650;SDS011;40241;52.684;9.758;2023-10-13T05:15:54;16.67;;;12.53;;
5650;SDS011;40241;52.684;9.758;2023-10-13T05:18:38;14.13;;;11.57;;
5650;SDS011;40241;52.684;9.758;2023-10-13T05:21:22;12.77;;;11.40;;
5650;SDS011;40241;52.684;9.758;2023-10-13T05:24:06;16.90;;;11.80;;
5650;SDS011;40241;52.684;9.758;2023-10-13T05:26:51;14.20;;;10.70;;
5650;SDS011;40241;52.684;9.758;2023-10-13T05:29:39;18.13;;;11.00;;
5650;SDS011;40241;52.684;9.758;2023-10-13T05:32:27;12.93;;;11.47;;
5650;SDS011;40241;52.684;9.758;2023-10-13T05:35:12;12.57;;;11.37;;
5650;SDS011;40241;52.684;9.758;2023-10-13T05:37:56;11.67;;;10.47;;
5650;SDS011;40241;52.684;9.758;2023-10-13T05:40:50;12.40;;;11.07;;
5650;SDS011;40241;52.684;9.758;2023-10-13T05:43:35;12.73;;;10.33;;
5650;SDS011;40241;52.684;9.758;2023-10-13T05:46:19;14.20;;;11.70;;
5650;SDS011;40241;52.684;9.758;2023-10-13T05:48:51;10.70;;;9.60;;
5650;SDS011;40241;52.684;9.758;2023-10-13T05:51:19;13.20;;;11.70;;
5650;SDS011;40241;52.684;9.758;2023-10-13T05:53:58;14.50;;;10.80;;
5650;SDS011;40241;52.684;9.758;2023-10-13T05:56:39;12.43;;;11.13;;
5650;SDS011;40241;52.684;9.758;2023-10-13T05:59:31;13.50;;;10.10;;
5650;SDS011;40241;52.684;9.758;2023-10-13T06:02:17;14.90;;;11.13;;
5650;SDS011;40241;52.684;9.758;2023-10-13T06:05:02;17.93;;;10.97;;
5650;SDS011;40241;52.684;9.758;2023-10-13T06:07:48;17.97;;;11.63;;
5650;SDS011;40241;52.684;9.758;2023-10-13T06:10:32;14.00;;;11.07;;
5650;SDS011;40241;52.684;9.758;2023-10-13T06:13:16;14.90;;;11.47;;
5650;SDS011;40241;52.684;9.758;2023-10-13T06:16:00;11.57;;;10.40;;
5650;SDS011;40241;52.684;9.758;2023-10-13T06:18:48;11.70;;;10.47;;
5650;SDS011;40241;52.684;9.758;2023-10-13T06:21:32;16.70;;;12.47;;
5650;SDS011;40241;52.684;9.758;2023-10-13T06:24:16;16.70;;;12.87;;
5650;SDS011;40241;52.684;9.758;2023-10-13T06:27:00;16.13;;;12.70;;
5650;SDS011;40241;52.684;9.758;2023-10-13T06:29:43;16.27;;;13.17;;
5650;SDS011;40241;52.684;9.758;2023-10-13T06:32:10;67.40;;;27.37;;
5650;SDS011;40241;52.684;9.758;2023-10-13T06:34:37;33.40;;;18.23;;
5650;SDS011;40241;52.684;9.758;2023-10-13T06:37:05;25.00;;;19.53;;
5650;SDS011;40241;52.684;9.758;2023-10-13T06:39:49;14.50;;;12.63;;
5650;SDS011;40241;52.684;9.758;2023-10-13T06:42:16;46.73;;;23.80;;
5650;SDS011;40241;52.684;9.758;2023-10-13T06:44:43;29.43;;;24.37;;
5650;SDS011;40241;52.684;9.758;2023-10-13T06:47:12;23.73;;;15.73;;
5650;SDS011;40241;52.684;9.758;2023-10-13T06:49:41;32.37;;;18.43;;
5650;SDS011;40241;52.684;9.758;2023-10-13T06:52:09;28.23;;;16.67;;
5650;SDS011;40241;52.684;9.758;2023-10-13T06:54:38;39.53;;;18.77;;
5650;SDS011;40241;52.684;9.758;2023-10-13T06:57:04;16.30;;;10.77;;
5650;SDS011;40241;52.684;9.758;2023-10-13T06:59:35;13.70;;;11.03;;
5650;SDS011;40241;52.684;9.758;2023-10-13T07:02:01;50.43;;;27.47;;
5650;SDS011;40241;52.684;9.758;2023-10-13T07:04:31;33.07;;;19.80;;
5650;SDS011;40241;52.684;9.758;2023-10-13T07:06:57;63.43;;;27.77;;
5650;SDS011;40241;52.684;9.758;2023-10-13T07:09:22;38.37;;;18.13;;
5650;SDS011;40241;52.684;9.758;2023-10-13T07:11:59;28.03;;;14.20;;
5650;SDS011;40241;52.684;9.758;2023-10-13T07:14:27;24.90;;;17.17;;
5650;SDS011;40241;52.684;9.758;2023-10-13T07:16:56;22.53;;;14.20;;
5650;SDS011;40241;52.684;9.758;2023-10-13T07:19:25;24.57;;;13.47;;
5650;SDS011;40241;52.684;9.758;2023-10-13T07:22:01;29.37;;;16.77;;
5650;SDS011;40241;52.684;9.758;2023-10-13T07:24:45;33.70;;;17.93;;
5650;SDS011;40241;52.684;9.758;2023-10-13T07:27:21;34.83;;;17.20;;
5650;SDS011;40241;52.684;9.758;2023-10-13T07:29:54;15.60;;;10.80;;
5650;SDS011;40241;52.684;9.758;2023-10-13T07:32:40;23.63;;;12.43;;
5650;SDS011;40241;52.684;9.758;2023-10-13T07:35:10;19.37;;;11.43;;
5650;SDS011;40241;52.684;9.758;2023-10-13T07:37:49;23.10;;;13.20;;
5650;SDS011;40241;52.684;9.758;2023-10-13T07:40:17;35.50;;;17.73;;
5650;SDS011;40241;52.684;9.758;2023-10-13T07:42:52;10.67;;;8.40;;
5650;SDS011;40241;52.684;9.758;2023-10-13T07:45:25;34.27;;;14.60;;
5650;SDS011;40241;52.684;9.758;2023-10-13T07:48:06;32.40;;;17.13;;
5650;SDS011;40241;52.684;9.758;2023-10-13T07:50:41;48.30;;;20.40;;
5650;SDS011;40241;52.684;9.758;2023-10-13T07:53:06;45.53;;;19.10;;
5650;SDS011;40241;52.684;9.758;2023-10-13T07:55:45;97.10;;;39.87;;
5650;SDS011;40241;52.684;9.758;2023-10-13T07:58:12;78.80;;;33.57;;
5650;SDS011;40241;52.684;9.758;2023-10-13T08:00:39;56.50;;;24.90;;
5650;SDS011;40241;52.684;9.758;2023-10-13T08:03:10;23.20;;;9.83;;
5650;SDS011;40241;52.684;9.758;2023-10-13T08:05:42;27.07;;;12.30;;
5650;SDS011;40241;52.684;9.758;2023-10-13T08:08:23;52.70;;;19.70;;
5650;SDS011;40241;52.684;9.758;2023-10-13T08:11:00;68.90;;;24.53;;
5650;SDS011;40241;52.684;9.758;2023-10-13T08:13:55;9.10;;;7.37;;
5650;SDS011;40241;52.684;9.758;2023-10-13T08:16:25;5.20;;;4.70;;
5650;SDS011;40241;52.684;9.758;2023-10-13T08:19:17;5.57;;;4.97;;
5650;SDS011;40241;52.684;9.758;2023-10-13T08:21:45;6.70;;;5.60;;
5650;SDS011;40241;52.684;9.758;2023-10-13T08:24:16;7.57;;;5.40;;
5650;SDS011;40241;52.684;9.758;2023-10-13T08:26:49;6.00;;;5.10;;
5650;SDS011;40241;52.684;9.758;2023-10-13T08:29:33;6.20;;;5.50;;
5650;SDS011;40241;52.684;9.758;2023-10-13T08:32:34;7.40;;;5.40;;
5650;SDS011;40241;52.684;9.758;2023-10-13T08:34:59;5.83;;;4.80;;
5650;SDS011;40241;52.684;9.758;2023-10-13T08:37:30;6.63;;;5.53;;
5650;SDS011;40241;52.684;9.758;2023-10-13T08:40:14;10.10;;;4.90;;
5650;SDS011;40241;52.684;9.758;2023-10-13T08:43:06;4.67;;;4.23;;
5650;SDS011;40241;52.684;9.758;2023-10-13T08:45:37;5.20;;;4.70;;
5650;SDS011;40241;52.684;9.758;2023-10-13T08:48:03;4.87;;;4.40;;
5650;SDS011;40241;52.684;9.758;2023-10-13T08:53:15;4.60;;;4.00;;
5650;SDS011;40241;52.684;9.758;2023-10-13T08:58:27;5.00;;;4.27;;
5650;SDS011;40241;52.684;9.758;2023-10-13T09:01:12;4.07;;;3.67;;
5650;SDS011;40241;52.684;9.758;2023-10-13T09:03:41;4.70;;;3.97;;
5650;SDS011;40241;52.684;9.758;2023-10-13T09:06:14;6.27;;;3.60;;
5650;SDS011;40241;52.684;9.758;2023-10-13T09:08:45;5.10;;;4.40;;
5650;SDS011;40241;52.684;9.758;2023-10-13T09:11:31;7.50;;;5.87;;
5650;SDS011;40241;52.684;9.758;2023-10-13T09:14:13;5.70;;;3.37;;
5650;SDS011;40241;52.684;9.758;2023-10-13T09:17:04;6.27;;;5.67;;
5650;SDS011;40241;52.684;9.758;2023-10-13T09:22:56;5.23;;;4.13;;
5650;SDS011;40241;52.684;9.758;2023-10-13T09:25:28;6.27;;;4.87;;
5650;SDS011;40241;52.684;9.758;2023-10-13T09:28:16;11.73;;;4.37;;
5650;SDS011;40241;52.684;9.758;2023-10-13T09:30:52;3.60;;;3.30;;
5650;SDS011;40241;52.684;9.758;2023-10-13T09:33:25;6.80;;;5.07;;
5650;SDS011;40241;52.684;9.758;2023-10-13T09:36:01;4.50;;;3.97;;
5650;SDS011;40241;52.684;9.758;2023-10-13T09:38:30;10.60;;;8.27;;
5650;SDS011;40241;52.684;9.758;2023-10-13T09:40:57;11.37;;;5.90;;
5650;SDS011;40241;52.684;9.758;2023-10-13T09:43:26;13.23;;;7.10;;
5650;SDS011;40241;52.684;9.758;2023-10-13T09:46:00;67.00;;;33.47;;
5650;SDS011;40241;52.684;9.758;2023-10-13T09:48:33;38.67;;;17.57;;
5650;SDS011;40241;52.684;9.758;2023-10-13T09:51:01;67.57;;;27.70;;
5650;SDS011;40241;52.684;9.758;2023-10-13T09:53:34;40.10;;;14.87;;
5650;SDS011;40241;52.684;9.758;2023-10-13T09:56:07;91.53;;;34.37;;
5650;SDS011;40241;52.684;9.758;2023-10-13T09:58:54;83.97;;;27.20;;
5650;SDS011;40241;52.684;9.758;2023-10-13T10:01:26;62.23;;;26.43;;
5650;SDS011;40241;52.684;9.758;2023-10-13T10:04:06;6.17;;;4.17;;
5650;SDS011;40241;52.684;9.758;2023-10-13T10:06:51;51.50;;;24.60;;
5650;SDS011;40241;52.684;9.758;2023-10-13T10:09:25;132.40;;;50.40;;
5650;SDS011;40241;52.684;9.758;2023-10-13T10:12:15;100.20;;;42.53;;
5650;SDS011;40241;52.684;9.758;2023-10-13T10:15:07;84.97;;;24.30;;
5650;SDS011;40241;52.684;9.758;2023-10-13T10:18:17;121.70;;;35.73;;
5650;SDS011;40241;52.684;9.758;2023-10-13T10:20:44;142.97;;;58.27;;
5650;SDS011;40241;52.684;9.758;2023-10-13T10:23:23;86.90;;;33.67;;
5650;SDS011;40241;52.684;9.758;2023-10-13T10:25:49;162.13;;;69.63;;
5650;SDS011;40241;52.684;9.758;2023-10-13T10:28:16;102.43;;;38.20;;
5650;SDS011;40241;52.684;9.758;2023-10-13T10:30:44;94.97;;;36.97;;
5650;SDS011;40241;52.684;9.758;2023-10-13T10:33:11;35.47;;;14.97;;
5650;SDS011;40241;52.684;9.758;2023-10-13T10:35:48;56.17;;;26.47;;
5650;SDS011;40241;52.684;9.758;2023-10-13T10:38:24;10.10;;;6.17;;
5650;SDS011;40241;52.684;9.758;2023-10-13T10:41:04;17.90;;;12.03;;
5650;SDS011;40241;52.684;9.758;2023-10-13T10:46:10;25.73;;;10.20;;
5650;SDS011;40241;52.684;9.758;2023-10-13T10:48:37;29.07;;;13.00;;
5650;SDS011;40241;52.684;9.758;2023-10-13T10:51:07;29.37;;;13.87;;
5650;SDS011;40241;52.684;9.758;2023-10-13T10:53:40;25.43;;;10.83;;
5650;SDS011;40241;52.684;9.758;2023-10-13T10:56:12;16.80;;;10.60;;
5650;SDS011;40241;52.684;9.758;2023-10-13T10:58:48;25.10;;;11.90;;
5650;SDS011;40241;52.684;9.758;2023-10-13T11:01:20;85.47;;;22.40;;
5650;SDS011;40241;52.684;9.758;2023-10-13T11:03:56;74.33;;;29.43;;
5650;SDS011;40241;52.684;9.758;2023-10-13T11:06:25;36.73;;;18.03;;
5650;SDS011;40241;52.684;9.758;2023-10-13T11:09:01;14.07;;;8.17;;
5650;SDS011;40241;52.684;9.758;2023-10-13T11:11:43;7.33;;;4.63;;
5650;SDS011;40241;52.684;9.758;2023-10-13T11:16:50;20.80;;;9.03;;
5650;SDS011;40241;52.684;9.758;2023-10-13T11:19:34;8.57;;;6.53;;
5650;SDS011;40241;52.684;9.758;2023-10-13T11:22:14;10.20;;;3.53;;
5650;SDS011;40241;52.684;9.758;2023-10-13T11:25:00;5.97;;;4.63;;
5650;SDS011;40241;52.684;9.758;2023-10-13T11:27:37;3.13;;;2.77;;
5650;SDS011;40241;52.684;9.758;2023-10-13T11:30:20;23.67;;;8.13;;
5650;SDS011;40241;52.684;9.758;2023-10-13T11:33:05;7.97;;;3.87;;
5650;SDS011;40241;52.684;9.758;2023-10-13T11:35:35;4.77;;;2.30;;
5650;SDS011;40241;52.684;9.758;2023-10-13T11:38:32;4.70;;;4.03;;
5650;SDS011;40241;52.684;9.758;2023-10-13T11:41:15;5.17;;;3.20;;
5650;SDS011;40241;52.684;9.758;2023-10-13T11:43:44;8.43;;;4.73;;
5650;SDS011;40241;52.684;9.758;2023-10-13T11:46:20;3.93;;;3.60;;
5650;SDS011;40241;52.684;9.758;2023-10-13T11:49:02;6.20;;;3.00;;
5650;SDS011;40241;52.684;9.758;2023-10-13T11:51:51;6.00;;;2.70;;
5650;SDS011;40241;52.684;9.758;2023-10-13T11:54:20;6.93;;;2.93;;
5650;SDS011;40241;52.684;9.758;2023-10-13T11:56:48;7.03;;;3.50;;
5650;SDS011;40241;52.684;9.758;2023-10-13T11:59:14;3.90;;;3.50;;
5650;SDS011;40241;52.684;9.758;2023-10-13T12:01:46;4.67;;;3.03;;
5650;SDS011;40241;52.684;9.758;2023-10-13T12:04:31;5.00;;;2.90;;
5650;SDS011;40241;52.684;9.758;2023-10-13T12:07:14;5.23;;;3.00;;
5650;SDS011;40241;52.684;9.758;2023-10-13T12:09:45;6.60;;;3.43;;
5650;SDS011;40241;52.684;9.758;2023-10-13T12:12:21;7.97;;;2.80;;
5650;SDS011;40241;52.684;9.758;2023-10-13T12:14:46;6.33;;;2.90;;
5650;SDS011;40241;52.684;9.758;2023-10-13T12:17:19;6.30;;;3.53;;
5650;SDS011;40241;52.684;9.758;2023-10-13T12:19:56;7.90;;;3.37;;
5650;SDS011;40241;52.684;9.758;2023-10-13T12:22:22;3.60;;;2.80;;
5650;SDS011;40241;52.684;9.758;2023-10-13T12:25:00;6.30;;;3.53;;
5650;SDS011;40241;52.684;9.758;2023-10-13T12:27:29;7.60;;;3.50;;
5650;SDS011;40241;52.684;9.758;2023-10-13T12:30:10;12.40;;;3.60;;
5650;SDS011;40241;52.684;9.758;2023-10-13T12:32:39;5.50;;;3.50;;
5650;SDS011;40241;52.684;9.758;2023-10-13T12:35:09;7.73;;;3.30;;
5650;SDS011;40241;52.684;9.758;2023-10-13T12:37:35;6.77;;;3.17;;
5650;SDS011;40241;52.684;9.758;2023-10-13T12:40:11;7.47;;;3.70;;
5650;SDS011;40241;52.684;9.758;2023-10-13T12:42:56;8.27;;;3.87;;
5650;SDS011;40241;52.684;9.758;2023-10-13T12:45:41;4.27;;;2.70;;
5650;SDS011;40241;52.684;9.758;2023-10-13T12:48:32;5.90;;;3.37;;
5650;SDS011;40241;52.684;9.758;2023-10-13T12:51:17;7.20;;;3.43;;
5650;SDS011;40241;52.684;9.758;2023-10-13T12:53:55;5.37;;;3.37;;
5650;SDS011;40241;52.684;9.758;2023-10-13T12:56:29;6.30;;;3.40;;
5650;SDS011;40241;52.684;9.758;2023-10-13T12:58:55;13.90;;;3.87;;
5650;SDS011;40241;52.684;9.758;2023-10-13T13:01:22;6.97;;;3.63;;
5650;SDS011;40241;52.684;9.758;2023-10-13T13:03:49;6.17;;;3.70;;
5650;SDS011;40241;52.684;9.758;2023-10-13T13:06:19;4.10;;;2.90;;
5650;SDS011;40241;52.684;9.758;2023-10-13T13:08:53;7.03;;;3.43;;
5650;SDS011;40241;52.684;9.758;2023-10-13T13:11:19;6.83;;;3.47;;
5650;SDS011;40241;52.684;9.758;2023-10-13T13:13:45;5.47;;;3.30;;
5650;SDS011;40241;52.684;9.758;2023-10-13T13:16:11;6.13;;;4.00;;
5650;SDS011;40241;52.684;9.758;2023-10-13T13:18:37;5.83;;;3.37;;
5650;SDS011;40241;52.684;9.758;2023-10-13T13:21:02;4.90;;;3.30;;
5650;SDS011;40241;52.684;9.758;2023-10-13T13:23:31;7.00;;;4.00;;
5650;SDS011;40241;52.684;9.758;2023-10-13T13:25:56;6.80;;;3.60;;
5650;SDS011;40241;52.684;9.758;2023-10-13T13:28:22;6.83;;;3.40;;
5650;SDS011;40241;52.684;9.758;2023-10-13T13:30:49;8.50;;;3.27;;
5650;SDS011;40241;52.684;9.758;2023-10-13T13:33:16;6.20;;;3.47;;
5650;SDS011;40241;52.684;9.758;2023-10-13T13:35:42;5.73;;;3.77;;
5650;SDS011;40241;52.684;9.758;2023-10-13T13:38:13;7.17;;;4.00;;
5650;SDS011;40241;52.684;9.758;2023-10-13T13:40:47;8.63;;;3.80;;
5650;SDS011;40241;52.684;9.758;2023-10-13T13:43:14;4.77;;;3.60;;
5650;SDS011;40241;52.684;9.758;2023-10-13T13:45:56;9.70;;;3.80;;
5650;SDS011;40241;52.684;9.758;2023-10-13T13:48:27;9.40;;;3.70;;
5650;SDS011;40241;52.684;9.758;2023-10-13T13:50:52;6.80;;;3.53;;
5650;SDS011;40241;52.684;9.758;2023-10-13T13:53:28;9.03;;;3.40;;
5650;SDS011;40241;52.684;9.758;2023-10-13T13:55:59;8.40;;;3.80;;
5650;SDS011;40241;52.684;9.758;2023-10-13T13:58:25;7.70;;;3.50;;
5650;SDS011;40241;52.684;9.758;2023-10-13T14:00:50;7.53;;;3.60;;
5650;SDS011;40241;52.684;9.758;2023-10-13T14:03:15;7.30;;;3.07;;
5650;SDS011;40241;52.684;9.758;2023-10-13T14:05:59;4.90;;;3.37;;
5650;SDS011;40241;52.684;9.758;2023-10-13T14:08:26;6.20;;;3.60;;
5650;SDS011;40241;52.684;9.758;2023-10-13T14:10:52;8.80;;;3.90;;
5650;SDS011;40241;52.684;9.758;2023-10-13T14:13:46;6.20;;;3.20;;
5650;SDS011;40241;52.684;9.758;2023-10-13T14:16:17;5.33;;;3.50;;
5650;SDS011;40241;52.684;9.758;2023-10-13T14:18:47;5.80;;;3.50;;
5650;SDS011;40241;52.684;9.758;2023-10-13T14:21:13;5.70;;;3.57;;
5650;SDS011;40241;52.684;9.758;2023-10-13T14:23:48;3.07;;;2.57;;
5650;SDS011;40241;52.684;9.758;2023-10-13T14:26:17;5.87;;;4.17;;
5650;SDS011;40241;52.684;9.758;2023-10-13T14:28:49;6.87;;;3.60;;
5650;SDS011;40241;52.684;9.758;2023-10-13T14:31:20;6.07;;;3.23;;
5650;SDS011;40241;52.684;9.758;2023-10-13T14:33:46;8.10;;;3.53;;
5650;SDS011;40241;52.684;9.758;2023-10-13T14:36:12;8.70;;;4.20;;
5650;SDS011;40241;52.684;9.758;2023-10-13T14:38:38;5.50;;;3.50;;
5650;SDS011;40241;52.684;9.758;2023-10-13T14:41:03;8.70;;;3.80;;
5650;SDS011;40241;52.684;9.758;2023-10-13T14:43:30;6.63;;;3.90;;
5650;SDS011;40241;52.684;9.758;2023-10-13T14:45:56;7.87;;;3.70;;
5650;SDS011;40241;52.684;9.758;2023-10-13T14:48:21;7.10;;;3.47;;
5650;SDS011;40241;52.684;9.758;2023-10-13T14:50:49;10.47;;;4.00;;
5650;SDS011;40241;52.684;9.758;2023-10-13T14:53:14;6.70;;;3.70;;
5650;SDS011;40241;52.684;9.758;2023-10-13T14:55:46;8.63;;;4.17;;
5650;SDS011;40241;52.684;9.758;2023-10-13T14:58:12;6.00;;;3.57;;
5650;SDS011;40241;52.684;9.758;2023-10-13T15:00:41;5.37;;;3.63;;
5650;SDS011;40241;52.684;9.758;2023-10-13T15:03:10;6.77;;;3.40;;
5650;SDS011;40241;52.684;9.758;2023-10-13T15:05:39;10.17;;;3.77;;
5650;SDS011;40241;52.684;9.758;2023-10-13T15:08:08;5.50;;;3.87;;
5650;SDS011;40241;52.684;9.758;2023-10-13T15:10:36;8.00;;;3.73;;
5650;SDS011;40241;52.684;9.758;2023-10-13T15:13:03;10.17;;;3.80;;
5650;SDS011;40241;52.684;9.758;2023-10-13T15:15:30;7.47;;;3.70;;
5650;SDS011;40241;52.684;9.758;2023-10-13T15:17:57;6.33;;;3.70;;
5650;SDS011;40241;52.684;9.758;2023-10-13T15:20:23;8.30;;;3.90;;
5650;SDS011;40241;52.684;9.758;2023-10-13T15:22:48;11.03;;;4.20;;
5650;SDS011;40241;52.684;9.758;2023-10-13T15:25:14;6.60;;;4.43;;
5650;SDS011;40241;52.684;9.758;2023-10-13T15:27:46;5.63;;;4.03;;
5650;SDS011;40241;52.684;9.758;2023-10-13T15:30:20;6.83;;;3.70;;
5650;SDS011;40241;52.684;9.758;2023-10-13T15:32:50;9.60;;;4.37;;
5650;SDS011;40241;52.684;9.758;2023-10-13T15:35:16;9.57;;;4.40;;
5650;SDS011;40241;52.684;9.758;2023-10-13T15:37:42;10.00;;;4.07;;
5650;SDS011;40241;52.684;9.758;2023-10-13T15:40:12;7.00;;;3.77;;
5650;SDS011;40241;52.684;9.758;2023-10-13T15:42:43;4.67;;;3.40;;
5650;SDS011;40241;52.684;9.758;2023-10-13T15:45:12;6.93;;;3.80;;
5650;SDS011;40241;52.684;9.758;2023-10-13T15:47:48;9.00;;;3.97;;
5650;SDS011;40241;52.684;9.758;2023-10-13T15:50:14;4.70;;;3.37;;